createdAt,value
2017-10-17T00:00:16.444Z,16.90
2017-10-17T00:02:43.937Z,16.90
2017-10-17T00:05:12.188Z,16.90
2017-10-17T00:07:39.680Z,16.80
2017-10-17T00:10:07.942Z,16.90
2017-10-17T00:12:36.187Z,16.80
2017-10-17T00:15:03.696Z,16.80
2017-10-17T00:17:31.949Z,16.80
2017-10-17T00:20:00.235Z,16.80
2017-10-17T00:22:28.522Z,16.80
2017-10-17T00:25:03.344Z,16.80
2017-10-17T00:27:31.612Z,16.80
2017-10-17T00:29:59.895Z,16.70
2017-10-17T00:32:35.148Z,16.70
2017-10-17T00:35:03.408Z,16.70
2017-10-17T00:37:30.888Z,16.60
2017-10-17T00:39:59.152Z,16.60
2017-10-17T00:42:26.648Z,16.60
2017-10-17T00:44:54.160Z,16.60
2017-10-17T00:47:22.404Z,16.60
2017-10-17T00:49:49.881Z,16.60
2017-10-17T00:52:17.383Z,16.60
2017-10-17T00:54:44.867Z,16.50
2017-10-17T00:57:12.380Z,16.60
2017-10-17T00:59:40.633Z,16.50
2017-10-17T01:02:08.117Z,16.50
2017-10-17T01:04:36.372Z,16.50
2017-10-17T01:07:03.945Z,16.50
2017-10-17T01:09:32.219Z,16.50
2017-10-17T01:11:59.691Z,16.50
2017-10-17T01:14:27.939Z,16.40
2017-10-17T01:16:55.522Z,16.40
2017-10-17T01:19:23.769Z,16.40
2017-10-17T01:21:51.288Z,16.40
2017-10-17T01:24:18.780Z,16.40
2017-10-17T01:26:46.283Z,16.40
2017-10-17T01:29:14.544Z,16.30
2017-10-17T01:31:42.797Z,16.30
2017-10-17T01:34:10.316Z,16.30
2017-10-17T01:36:37.789Z,16.30
2017-10-17T01:39:05.280Z,16.30
2017-10-17T01:41:32.778Z,16.30
2017-10-17T01:44:06.783Z,16.30
2017-10-17T01:46:38.768Z,16.20
2017-10-17T01:49:10.874Z,16.20
2017-10-17T01:51:43.940Z,16.30
2017-10-17T01:54:22.933Z,16.30
2017-10-17T01:56:51.240Z,16.20
2017-10-17T01:59:25.543Z,16.20
2017-10-17T02:01:53.852Z,16.20
2017-10-17T02:04:21.339Z,16.20
2017-10-17T02:06:48.824Z,16.20
2017-10-17T02:09:16.320Z,16.20
2017-10-17T02:11:43.797Z,16.20
2017-10-17T02:14:11.295Z,16.10
2017-10-17T02:16:39.535Z,16.10
2017-10-17T02:19:10.769Z,16.10
2017-10-17T02:21:48.178Z,16.10
2017-10-17T02:24:25.687Z,16.10
2017-10-17T02:26:53.953Z,16.10
2017-10-17T02:32:21.856Z,16.10
2017-10-17T02:37:47.693Z,16.00
2017-10-17T02:40:15.980Z,16.00
2017-10-17T02:42:44.230Z,16.00
2017-10-17T02:45:11.819Z,16.00
2017-10-17T02:47:41.501Z,16.00
2017-10-17T02:50:10.531Z,16.00
2017-10-17T02:52:40.728Z,16.00
2017-10-17T02:55:08.222Z,16.00
2017-10-17T02:57:35.727Z,16.00
2017-10-17T03:00:04.102Z,16.00
2017-10-17T03:02:35.287Z,16.00
2017-10-17T03:05:07.953Z,16.00
2017-10-17T03:07:36.337Z,15.90
2017-10-17T03:10:04.644Z,15.90
2017-10-17T03:12:32.119Z,15.90
2017-10-17T03:15:10.392Z,15.90
2017-10-17T03:17:38.671Z,15.90
2017-10-17T03:20:06.194Z,15.90
2017-10-17T03:22:33.675Z,15.90
2017-10-17T03:25:04.836Z,15.80
2017-10-17T03:27:33.080Z,15.80
2017-10-17T03:30:00.560Z,15.80
2017-10-17T03:32:28.811Z,15.80
2017-10-17T03:34:57.127Z,15.80
2017-10-17T03:37:41.213Z,15.80
2017-10-17T03:40:14.131Z,15.80
2017-10-17T03:45:42.511Z,15.70
2017-10-17T03:48:11.835Z,15.70
2017-10-17T03:50:39.388Z,15.70
2017-10-17T03:53:14.811Z,15.60
2017-10-17T03:55:42.291Z,15.60
2017-10-17T03:58:09.774Z,15.60
2017-10-17T04:00:38.032Z,15.50
2017-10-17T04:03:06.439Z,15.50
2017-10-17T04:08:36.116Z,15.50
2017-10-17T04:11:07.267Z,15.50
2017-10-17T04:13:38.375Z,15.50
2017-10-17T04:19:40.425Z,15.30
2017-10-17T04:22:11.438Z,15.30
2017-10-17T04:24:53.579Z,15.30
2017-10-17T04:30:29.206Z,15.30
2017-10-17T04:33:16.175Z,15.30
2017-10-17T04:35:43.752Z,15.30
2017-10-17T04:38:11.232Z,15.30
2017-10-17T04:40:38.722Z,15.30
2017-10-17T04:43:31.687Z,15.30
2017-10-17T04:46:13.784Z,15.20
2017-10-17T04:48:51.299Z,15.30
2017-10-17T04:51:28.168Z,15.20
2017-10-17T04:54:08.021Z,15.20
2017-10-17T04:56:36.265Z,15.20
2017-10-17T04:59:15.697Z,15.20
2017-10-17T05:01:46.895Z,15.20
2017-10-17T05:04:21.388Z,15.20
2017-10-17T05:06:49.632Z,15.20
2017-10-17T05:09:27.575Z,15.20
2017-10-17T05:11:55.851Z,15.10
2017-10-17T05:14:30.717Z,15.10
2017-10-17T05:17:09.040Z,15.10
2017-10-17T05:22:45.045Z,15.10
2017-10-17T05:25:26.335Z,15.20
2017-10-17T05:28:18.234Z,15.10
2017-10-17T05:30:49.414Z,15.10
2017-10-17T05:36:34.384Z,15.10
2017-10-17T05:39:01.863Z,15.10
2017-10-17T05:41:29.337Z,15.10
2017-10-17T05:44:03.603Z,15.00
2017-10-17T05:46:31.084Z,15.00
2017-10-17T05:48:59.360Z,15.00
2017-10-17T05:51:26.864Z,15.10
2017-10-17T05:53:54.349Z,15.10
2017-10-17T05:56:21.825Z,15.00
2017-10-17T05:58:49.319Z,15.00
2017-10-17T06:01:17.574Z,15.00
2017-10-17T06:03:45.074Z,14.90
2017-10-17T06:06:12.557Z,14.90
2017-10-17T06:08:40.110Z,14.90
2017-10-17T06:11:07.634Z,14.90
2017-10-17T06:13:35.901Z,14.90
2017-10-17T06:16:03.404Z,14.90
2017-10-17T06:18:30.884Z,14.90
2017-10-17T06:20:58.377Z,14.90
2017-10-17T06:23:25.872Z,14.90
2017-10-17T06:25:53.388Z,14.90
2017-10-17T06:28:20.887Z,15.00
2017-10-17T06:30:48.579Z,15.10
2017-10-17T06:33:16.056Z,15.10
2017-10-17T06:35:43.539Z,15.10
2017-10-17T06:38:11.788Z,15.10
2017-10-17T06:40:39.299Z,15.10
2017-10-17T06:43:06.781Z,15.20
2017-10-17T06:45:34.264Z,15.20
2017-10-17T06:48:01.756Z,15.20
2017-10-17T06:50:30.022Z,15.30
2017-10-17T06:52:58.288Z,15.30
2017-10-17T06:55:25.772Z,15.30
2017-10-17T06:57:54.029Z,15.30
2017-10-17T07:00:23.024Z,15.30
2017-10-17T07:02:51.276Z,15.40
2017-10-17T07:05:18.772Z,15.30
2017-10-17T07:07:47.016Z,15.40
2017-10-17T07:10:14.512Z,15.40
2017-10-17T07:12:42.780Z,15.50
2017-10-17T07:15:11.092Z,15.50
2017-10-17T07:17:38.619Z,15.40
2017-10-17T07:20:06.876Z,15.50
2017-10-17T07:22:34.358Z,15.50
2017-10-17T07:25:02.622Z,15.50
2017-10-17T07:27:30.876Z,15.60
2017-10-17T07:29:58.383Z,15.60
2017-10-17T07:32:25.867Z,15.60
2017-10-17T07:34:53.351Z,15.60
2017-10-17T07:37:20.844Z,15.60
2017-10-17T07:39:49.111Z,15.70
2017-10-17T07:42:17.377Z,15.70
2017-10-17T07:44:46.360Z,15.70
2017-10-17T07:47:13.857Z,15.70
2017-10-17T07:49:42.123Z,15.80
2017-10-17T07:52:10.368Z,15.80
2017-10-17T07:54:37.871Z,15.70
2017-10-17T07:57:06.115Z,15.70
2017-10-17T07:59:33.599Z,15.70
2017-10-17T08:02:01.856Z,15.80
2017-10-17T08:04:29.336Z,15.80
2017-10-17T08:06:57.621Z,15.80
2017-10-17T08:09:25.100Z,15.80
2017-10-17T08:11:52.589Z,15.90
2017-10-17T08:14:20.083Z,16.00
2017-10-17T08:16:48.337Z,16.00
2017-10-17T08:19:17.336Z,16.00
2017-10-17T08:21:44.815Z,16.00
2017-10-17T08:24:13.059Z,16.10
2017-10-17T08:26:40.553Z,16.10
2017-10-17T08:29:08.031Z,16.20
2017-10-17T08:31:35.597Z,16.10
2017-10-17T08:34:03.081Z,16.20
2017-10-17T08:36:30.565Z,16.20
2017-10-17T08:38:58.885Z,16.30
2017-10-17T08:41:26.368Z,16.30
2017-10-17T08:43:53.893Z,16.30
2017-10-17T08:46:21.363Z,16.40
2017-10-17T08:48:48.840Z,16.50
2017-10-17T08:51:16.336Z,16.50
2017-10-17T08:53:44.595Z,16.50
2017-10-17T08:56:12.096Z,16.50
2017-10-17T08:58:40.360Z,16.60
2017-10-17T09:01:08.603Z,16.60
2017-10-17T09:03:36.096Z,16.60
2017-10-17T09:06:04.343Z,16.70
2017-10-17T09:08:32.614Z,16.80
2017-10-17T09:11:00.106Z,16.80
2017-10-17T09:13:28.365Z,17.00
2017-10-17T09:15:57.382Z,17.00
2017-10-17T09:18:25.628Z,17.10
2017-10-17T09:20:53.127Z,17.10
2017-10-17T09:23:20.606Z,17.00
2017-10-17T09:25:48.084Z,17.10
2017-10-17T09:28:15.584Z,17.10
2017-10-17T09:30:43.850Z,17.20
2017-10-17T09:33:11.351Z,17.20
2017-10-17T09:35:38.877Z,17.30
2017-10-17T09:38:07.127Z,17.20
2017-10-17T09:40:34.645Z,17.10
2017-10-17T09:43:02.143Z,17.20
2017-10-17T09:45:29.632Z,17.30
2017-10-17T09:47:57.882Z,17.40
2017-10-17T09:50:25.392Z,17.40
2017-10-17T09:52:52.884Z,17.40
2017-10-17T09:55:20.374Z,17.50
2017-10-17T09:57:48.644Z,17.60
2017-10-17T10:00:17.633Z,17.70
2017-10-17T10:02:46.642Z,17.70
2017-10-17T10:05:14.892Z,17.70
2017-10-17T10:07:42.400Z,17.70
2017-10-17T10:10:09.880Z,17.80
2017-10-17T10:12:37.364Z,17.90
2017-10-17T10:15:04.851Z,18.00
2017-10-17T10:17:33.117Z,18.10
2017-10-17T10:20:01.373Z,18.30
2017-10-17T10:22:28.880Z,18.20
2017-10-17T10:24:57.138Z,18.40
2017-10-17T10:27:25.400Z,18.50
2017-10-17T10:29:52.900Z,18.40
2017-10-17T10:32:20.471Z,18.50
2017-10-17T10:34:47.951Z,18.60
2017-10-17T10:37:15.490Z,18.70
2017-10-17T10:39:42.980Z,18.60
2017-10-17T10:42:10.475Z,18.60
2017-10-17T10:44:38.736Z,18.70
2017-10-17T10:47:06.227Z,18.70
2017-10-17T10:49:33.740Z,18.80
2017-10-17T10:52:01.223Z,18.80
2017-10-17T10:54:28.716Z,18.90
2017-10-17T10:56:56.200Z,18.90
2017-10-17T10:59:23.736Z,18.90
2017-10-17T11:01:51.244Z,19.00
2017-10-17T11:04:19.496Z,19.00
2017-10-17T11:06:46.995Z,19.00
2017-10-17T11:09:15.234Z,19.00
2017-10-17T11:11:42.728Z,19.00
2017-10-17T11:14:10.981Z,19.10
2017-10-17T11:16:38.479Z,19.10
2017-10-17T11:19:06.719Z,19.20
2017-10-17T11:21:34.196Z,19.20
2017-10-17T11:24:02.510Z,19.30
2017-10-17T11:26:30.003Z,19.30
2017-10-17T11:28:57.629Z,19.50
2017-10-17T11:31:25.131Z,19.50
2017-10-17T11:33:52.636Z,19.50
2017-10-17T11:36:20.116Z,19.60
2017-10-17T11:38:47.593Z,19.50
2017-10-17T11:44:17.992Z,19.60
2017-10-17T11:46:46.356Z,19.70
2017-10-17T11:49:14.606Z,19.70
2017-10-17T11:51:42.103Z,19.70
2017-10-17T11:54:10.348Z,19.90
2017-10-17T11:56:37.868Z,19.90
2017-10-17T11:59:05.352Z,20.00
2017-10-17T12:01:32.836Z,20.00
2017-10-17T12:04:01.115Z,20.10
2017-10-17T12:06:29.376Z,20.20
2017-10-17T12:08:56.870Z,20.20
2017-10-17T12:11:24.536Z,20.20
2017-10-17T12:13:52.040Z,20.30
2017-10-17T12:16:19.543Z,20.40
2017-10-17T12:18:47.031Z,20.40
2017-10-17T12:21:14.528Z,20.50
2017-10-17T12:23:42.013Z,20.50
2017-10-17T12:26:10.268Z,20.60
2017-10-17T12:28:37.749Z,20.60
2017-10-17T12:31:06.103Z,20.70
2017-10-17T12:33:33.596Z,20.70
2017-10-17T12:36:01.847Z,20.90
2017-10-17T12:38:29.345Z,20.80
2017-10-17T12:40:56.847Z,20.80
2017-10-17T12:43:24.343Z,20.90
2017-10-17T12:45:52.592Z,20.90
2017-10-17T12:48:20.101Z,20.90
2017-10-17T12:50:47.592Z,21.00
2017-10-17T12:53:15.100Z,21.00
2017-10-17T12:55:43.384Z,21.10
2017-10-17T12:58:10.863Z,21.00
2017-10-17T13:00:38.351Z,21.00
2017-10-17T13:03:05.871Z,21.10
2017-10-17T13:05:33.376Z,21.10
2017-10-17T13:08:00.852Z,21.20
2017-10-17T13:10:29.103Z,21.20
2017-10-17T13:12:56.599Z,21.20
2017-10-17T13:15:24.847Z,21.40
2017-10-17T13:17:52.436Z,21.40
2017-10-17T13:20:20.691Z,21.40
2017-10-17T13:22:48.195Z,21.40
2017-10-17T13:25:15.696Z,21.50
2017-10-17T13:27:43.172Z,21.60
2017-10-17T13:30:10.744Z,21.70
2017-10-17T13:32:38.983Z,21.80
2017-10-17T13:35:06.476Z,21.80
2017-10-17T13:37:34.719Z,21.80
2017-10-17T13:40:02.229Z,21.80
2017-10-17T13:42:29.704Z,21.90
2017-10-17T13:44:57.183Z,21.90
2017-10-17T13:47:24.675Z,21.80
2017-10-17T13:49:52.170Z,21.90
2017-10-17T13:52:19.673Z,21.80
2017-10-17T13:54:47.155Z,21.80
2017-10-17T13:57:15.423Z,21.80
2017-10-17T13:59:42.913Z,21.80
2017-10-17T14:02:10.399Z,21.90
2017-10-17T14:04:37.888Z,21.80
2017-10-17T14:07:05.371Z,21.90
2017-10-17T14:09:33.651Z,21.60
2017-10-17T14:12:01.900Z,21.60
2017-10-17T14:14:41.956Z,21.60
2017-10-17T14:17:09.447Z,21.70
2017-10-17T14:19:37.691Z,21.30
2017-10-17T14:22:05.188Z,21.30
2017-10-17T14:24:32.668Z,21.20
2017-10-17T14:27:00.935Z,20.90
2017-10-17T14:29:28.415Z,20.90
2017-10-17T14:31:55.920Z,20.80
2017-10-17T14:34:24.160Z,20.70
2017-10-17T14:36:51.636Z,20.70
2017-10-17T14:39:19.135Z,20.60
2017-10-17T14:41:46.613Z,20.50
2017-10-17T14:44:14.148Z,20.40
2017-10-17T14:46:42.478Z,20.40
2017-10-17T14:49:09.966Z,20.30
2017-10-17T14:51:38.233Z,20.20
2017-10-17T14:54:05.711Z,20.20
2017-10-17T14:56:33.977Z,20.10
2017-10-17T14:59:02.235Z,20.10
2017-10-17T15:01:29.732Z,20.10
2017-10-17T15:03:57.223Z,20.10
2017-10-17T15:06:24.701Z,20.10
2017-10-17T15:08:52.199Z,20.00
2017-10-17T15:11:20.448Z,19.80
2017-10-17T15:13:47.923Z,19.90
2017-10-17T15:16:16.177Z,19.80
2017-10-17T15:18:43.682Z,19.70
2017-10-17T15:21:11.161Z,19.80
2017-10-17T15:23:38.672Z,19.80
2017-10-17T15:26:06.936Z,19.70
2017-10-17T15:28:34.476Z,19.70
2017-10-17T15:31:02.005Z,19.70
2017-10-17T15:33:29.521Z,19.70
2017-10-17T15:35:57.822Z,19.60
2017-10-17T15:38:25.298Z,19.60
2017-10-17T15:40:52.780Z,19.60
2017-10-17T15:43:20.288Z,19.50
2017-10-17T15:45:48.536Z,19.40
2017-10-17T15:48:16.051Z,19.50
2017-10-17T15:50:43.532Z,19.40
2017-10-17T15:53:11.017Z,19.40
2017-10-17T15:55:38.520Z,19.40
2017-10-17T15:58:05.996Z,19.40
2017-10-17T16:00:33.491Z,19.30
2017-10-17T16:03:00.967Z,19.30
2017-10-17T16:05:29.216Z,19.20
2017-10-17T16:07:56.724Z,19.10
2017-10-17T16:10:24.224Z,19.10
2017-10-17T16:12:51.712Z,19.10
2017-10-17T16:15:19.209Z,19.00
2017-10-17T16:17:46.704Z,18.90
2017-10-17T16:20:14.196Z,18.80
2017-10-17T16:22:42.460Z,18.80
2017-10-17T16:25:10.045Z,18.80
2017-10-17T16:27:37.539Z,18.80
2017-10-17T16:30:05.040Z,18.70
2017-10-17T16:32:32.516Z,18.60
2017-10-17T16:35:00.780Z,18.50
2017-10-17T16:37:29.036Z,18.50
2017-10-17T16:39:58.028Z,18.40
2017-10-17T16:42:25.621Z,18.50
2017-10-17T16:44:53.864Z,18.30
2017-10-17T16:47:21.380Z,18.30
2017-10-17T16:49:48.864Z,18.30
2017-10-17T16:52:16.386Z,18.20
2017-10-17T16:54:43.960Z,18.20
2017-10-17T16:57:11.447Z,18.10
2017-10-17T16:59:39.735Z,18.00
2017-10-17T17:02:07.217Z,18.00
2017-10-17T17:04:35.478Z,18.00
2017-10-17T17:07:03.808Z,17.90
2017-10-17T17:09:31.306Z,17.90
2017-10-17T17:11:58.805Z,17.90
2017-10-17T17:14:27.049Z,17.70
2017-10-17T17:16:54.545Z,17.70
2017-10-17T17:19:22.024Z,17.80
2017-10-17T17:21:49.532Z,17.70
2017-10-17T17:24:17.024Z,17.70
2017-10-17T17:26:44.544Z,17.60
2017-10-17T17:29:12.099Z,17.60
2017-10-17T17:31:39.594Z,17.60
2017-10-17T17:34:08.788Z,17.50
2017-10-17T17:36:36.283Z,17.50
2017-10-17T17:39:03.784Z,17.50
2017-10-17T17:41:32.056Z,17.50
2017-10-17T17:43:59.571Z,17.50
2017-10-17T17:46:27.060Z,17.50
2017-10-17T17:48:54.540Z,17.40
2017-10-17T17:51:22.900Z,17.40
2017-10-17T17:53:50.380Z,17.40
2017-10-17T17:56:18.668Z,17.30
2017-10-17T17:58:46.920Z,17.30
2017-10-17T18:01:15.187Z,17.30
2017-10-17T18:03:42.665Z,17.30
2017-10-17T18:06:10.146Z,17.30
2017-10-17T18:08:38.399Z,17.20
2017-10-17T18:11:06.659Z,17.20
2017-10-17T18:13:34.175Z,17.20
2017-10-17T18:16:01.678Z,17.20
2017-10-17T18:18:29.163Z,17.20
2017-10-17T18:20:57.423Z,17.10
2017-10-17T18:23:24.913Z,17.10
2017-10-17T18:25:52.435Z,17.10
2017-10-17T18:28:19.928Z,17.10
2017-10-17T18:30:48.172Z,17.00
2017-10-17T18:33:16.455Z,17.00
2017-10-17T18:35:44.699Z,16.90
2017-10-17T18:38:12.205Z,16.90
2017-10-17T18:40:40.452Z,16.90
2017-10-17T18:43:07.932Z,16.90
2017-10-17T18:45:36.208Z,16.80
2017-10-17T18:48:04.451Z,16.80
2017-10-17T18:50:31.943Z,16.80
2017-10-17T18:53:00.193Z,16.70
2017-10-17T18:55:27.703Z,16.70
2017-10-17T18:57:55.205Z,16.70
2017-10-17T19:00:22.695Z,16.70
2017-10-17T19:02:50.991Z,16.60
2017-10-17T19:05:18.472Z,16.60
2017-10-17T19:07:45.959Z,16.60
2017-10-17T19:10:13.465Z,16.60
2017-10-17T19:12:41.716Z,16.60
2017-10-17T19:15:09.986Z,16.50
2017-10-17T19:17:38.990Z,16.50
2017-10-17T19:20:07.296Z,16.50
2017-10-17T19:22:34.795Z,16.50
2017-10-17T19:25:03.062Z,16.40
2017-10-17T19:27:30.544Z,16.40
2017-10-17T19:29:58.048Z,16.40
2017-10-17T19:32:25.555Z,16.40
2017-10-17T19:34:53.052Z,16.30
2017-10-17T19:37:21.317Z,16.20
2017-10-17T19:39:49.611Z,16.20
2017-10-17T19:42:17.866Z,16.20
2017-10-17T19:44:45.344Z,16.20
2017-10-17T19:47:13.600Z,16.20
2017-10-17T19:49:41.897Z,16.20
2017-10-17T19:52:10.172Z,16.10
2017-10-17T19:54:38.424Z,16.10
2017-10-17T19:57:05.909Z,16.10
2017-10-17T19:59:34.176Z,16.10
2017-10-17T20:02:02.431Z,16.10
2017-10-17T20:04:29.946Z,16.10
2017-10-17T20:06:57.428Z,16.10
2017-10-17T20:09:24.946Z,16.00
2017-10-17T20:11:52.453Z,16.00
2017-10-17T20:14:19.939Z,16.00
2017-10-17T20:16:48.203Z,15.90
2017-10-17T20:19:15.900Z,15.90
2017-10-17T20:21:43.441Z,15.90
2017-10-17T20:24:11.772Z,15.90
2017-10-17T20:26:39.255Z,15.90
2017-10-17T20:29:06.840Z,15.90
2017-10-17T20:31:35.084Z,15.90
2017-10-17T20:34:02.585Z,15.90
2017-10-17T20:36:30.173Z,15.90
2017-10-17T20:38:57.759Z,15.90
2017-10-17T20:41:25.259Z,15.90
2017-10-17T20:43:54.223Z,15.90
2017-10-17T20:46:21.712Z,15.90
2017-10-17T20:48:49.972Z,15.90
2017-10-17T20:51:18.986Z,15.80
2017-10-17T20:53:47.261Z,15.90
2017-10-17T20:56:15.509Z,15.80
2017-10-17T20:58:43.873Z,15.90
2017-10-17T21:01:11.370Z,15.80
2017-10-17T21:03:38.882Z,15.90
2017-10-17T21:06:06.461Z,15.90
2017-10-17T21:08:33.968Z,15.90
2017-10-17T21:11:01.478Z,15.90
2017-10-17T21:13:29.072Z,15.90
2017-10-17T21:15:56.567Z,15.80
2017-10-17T21:18:24.079Z,15.80
2017-10-17T21:20:52.327Z,15.80
2017-10-17T21:23:19.848Z,15.80
2017-10-17T21:25:47.380Z,15.80
2017-10-17T21:28:15.790Z,15.70
2017-10-17T21:30:44.067Z,15.70
2017-10-17T21:33:11.642Z,15.70
2017-10-17T21:35:39.171Z,15.70
2017-10-17T21:38:06.668Z,15.60
2017-10-17T21:40:34.160Z,15.50
2017-10-17T21:43:02.421Z,15.50
2017-10-17T21:45:29.911Z,15.50
2017-10-17T21:47:58.158Z,15.50
2017-10-17T21:50:25.677Z,15.50
2017-10-17T21:52:53.159Z,15.50
2017-10-17T21:55:20.687Z,15.50
2017-10-17T21:57:48.169Z,15.60
2017-10-17T22:00:15.656Z,15.60
2017-10-17T22:02:43.156Z,15.60
2017-10-17T22:05:10.640Z,15.60
2017-10-17T22:07:38.156Z,15.60
2017-10-17T22:10:06.428Z,15.60
2017-10-17T22:12:34.022Z,15.60
2017-10-17T22:15:01.507Z,15.60
2017-10-17T22:17:28.996Z,15.50
2017-10-17T22:19:57.296Z,15.50
2017-10-17T22:22:25.551Z,15.50
2017-10-17T22:24:53.836Z,15.50
2017-10-17T22:27:22.080Z,15.50
2017-10-17T22:29:49.588Z,15.50
2017-10-17T22:32:17.096Z,15.50
2017-10-17T22:34:44.579Z,15.40
2017-10-17T22:37:12.839Z,15.30
2017-10-17T22:39:40.338Z,15.30
2017-10-17T22:42:07.830Z,15.30
2017-10-17T22:44:35.345Z,15.30
2017-10-17T22:47:03.628Z,15.20
2017-10-17T22:49:31.910Z,15.20
2017-10-17T22:52:00.151Z,15.20
2017-10-17T22:54:27.643Z,15.20
2017-10-17T22:56:55.890Z,15.20
2017-10-17T22:59:23.428Z,15.20
2017-10-17T23:01:50.921Z,15.20
2017-10-17T23:04:19.173Z,15.20
2017-10-17T23:06:46.672Z,15.20
2017-10-17T23:09:14.916Z,15.20
2017-10-17T23:11:42.419Z,15.20
2017-10-17T23:14:09.909Z,15.10
2017-10-17T23:16:37.443Z,15.20
2017-10-17T23:19:16.923Z,15.10
2017-10-17T23:21:44.427Z,15.10
2017-10-17T23:24:11.912Z,15.10
2017-10-17T23:26:39.403Z,15.10
2017-10-17T23:29:06.992Z,15.10
2017-10-17T23:31:34.496Z,15.10
2017-10-17T23:34:01.988Z,15.00
2017-10-17T23:36:29.519Z,15.00
2017-10-17T23:38:57.024Z,15.00
2017-10-17T23:41:25.308Z,14.90
2017-10-17T23:43:53.556Z,15.00
2017-10-17T23:46:21.136Z,14.90
2017-10-17T23:48:49.385Z,14.90
2017-10-17T23:51:16.876Z,14.90
2017-10-17T23:53:45.121Z,14.90
2017-10-17T23:56:12.640Z,14.90
2017-10-17T23:58:40.125Z,14.90
